Ana Sayfa
METAR-TAF:

METAR-TAF

Havaalanları :

Augusta, Maine, Amerika Birleşik Devletleri

Enlem: 44-19-14N, Boylam: 069-47-50W, yükseklik: 107 m

Güncel hava durumu gözlemi

Rapor saat 20:53 UTC de 21 dakika önce yapıldı.
Rüzgar kuzeybatıdan 6 kt
Sıcaklık -2°C
Nem 31%
Basınç 1031 hPa
Görüş mesafesi: 16.1 km
Açık gökyüzü

METAR: KAUG 162053Z AUTO 32006KT 10SM CLR M02/M17 A3045 RMK AO2 SLP319 T10221167 55001

Saat: 16:14 (21:14 UTC)

Tahmin

Rapor saat 18:35 UTC de 2 saat ve 39 dakika önce yapıldı.
Ayın 16'si saat 19 UTC'den ayın 17'si saat 18 UTC'ye kadar geçerli Tahmin
Rüzgar batı/kuzeybatıdan 10 kt
Görüş mesafesi: 10 km
Açık gökyüzü
Ayın 16'si saat 2000 UTC'den
Rüzgar kuzeybatıdan 6 kt
Görüş mesafesi: 10 km
Açık gökyüzü
Ayın 17'si saat 1200 UTC'den
Rüzgar kuzey/kuzeydoğudan 5 kt
Görüş mesafesi: 10 km
Açık gökyüzü

TAF: KAUG 161835Z 1619/1718 30010KT P6SM SKC FM162000 32006KT P6SM SKC FM171200 02005KT P6SM SKC

4.000'den fazla havaalanı için hava durumu gözlemleri ve tahminleri (METAR ve TAF raporları).

Kullanılabilir istasyonlar harita üzerinde sarı ve kırmızı noktalarla gösterilir.

İstasyonun adını görmek için fareyi noktanın üzerinde gezdirin.

Sonrasında hava gözlem ve tahminlerini görmek için tıklayın.

Haritayı değiştirmek için: yaklaştırmak için siyah artı işaretli yeşil düğmeye ve uzaklaştırmak için de eksi işaretli düğmeye hızla tıklayın; bitişik haritalar için yeşil okları kullanın.


METAR-TAF: